Time;durP1;ratioP1;P1;durP2;ratioP2;P2;SDS_P1;SDS_P2;PMS_P1;PMS_P2;Temp;Humidity;BMP_temperature;BMP_pressure;BME280_temperature;BME280_humidity;BME280_pressure;Samples;Min_cycle;Max_cycle;Signal;HPM_P1;HPM_P2
2023/09/21 00:01:12;;;;;;;3.60;1.00;;;20.20;93.10;;;;;;5016130;28;20215;-78
2023/09/21 00:03:39;;;;;;;1.52;0.80;;;20.20;93.10;;;;;;5016068;28;20509;-77
2023/09/21 00:06:05;;;;;;;2.55;0.90;;;20.20;93.30;;;;;;5014897;28;20049;-78
2023/09/21 00:08:31;;;;;;;3.75;0.88;;;20.20;93.00;;;;;;5015242;28;20053;-78
2023/09/21 00:10:58;;;;;;;3.15;0.85;;;20.20;93.00;;;;;;5015571;28;20030;-78
2023/09/21 00:13:28;;;;;;;2.17;0.80;;;20.10;92.80;;;;;;5015825;28;20038;-78
2023/09/21 00:15:56;;;;;;;3.42;1.00;;;20.00;92.90;;;;;;5015887;28;20038;-78
2023/09/21 00:18:22;;;;;;;2.15;0.80;;;20.00;93.00;;;;;;4997865;28;20080;-78
2023/09/21 00:20:54;;;;;;;4.32;1.20;;;20.00;92.90;;;;;;5015897;28;20033;-78
2023/09/21 00:23:21;;;;;;;1.90;0.82;;;19.90;92.90;;;;;;5015231;28;20463;-77
2023/09/21 00:25:47;;;;;;;2.22;0.90;;;19.90;92.90;;;;;;5015128;28;20037;-77
2023/09/21 00:28:14;;;;;;;2.00;0.70;;;20.00;92.90;;;;;;5015139;28;20038;-77
2023/09/21 00:30:41;;;;;;;1.77;0.70;;;19.90;92.80;;;;;;5015240;28;20026;-77
2023/09/21 00:33:07;;;;;;;3.28;1.67;;;19.90;92.80;;;;;;5015155;28;20026;-78
2023/09/21 00:35:40;;;;;;;2.15;0.77;;;19.90;92.90;;;;;;5015301;28;20208;-78
2023/09/21 00:38:08;;;;;;;2.50;0.70;;;19.90;92.80;;;;;;5015563;28;20022;-78
2023/09/21 00:40:38;;;;;;;4.07;0.90;;;19.90;92.80;;;;;;4997290;28;20061;-78
2023/09/21 00:43:09;;;;;;;2.72;0.60;;;19.90;92.70;;;;;;4998251;28;20030;-78
2023/09/21 00:45:46;;;;;;;3.40;0.90;;;19.90;92.60;;;;;;5015101;28;20534;-78
2023/09/21 00:48:12;;;;;;;2.90;1.00;;;19.90;92.70;;;;;;5014266;28;20096;-78
2023/09/21 00:50:43;;;;;;;1.65;0.60;;;19.80;92.60;;;;;;4997029;28;20037;-78
2023/09/21 00:53:14;;;;;;;4.47;0.82;;;19.80;92.70;;;;;;5015236;28;20029;-77
2023/09/21 00:55:43;;;;;;;2.70;0.80;;;19.80;92.80;;;;;;5015028;28;20041;-77
2023/09/21 00:58:09;;;;;;;3.03;0.80;;;19.80;92.70;;;;;;5014926;28;20022;-77
2023/09/21 01:00:38;;;;;;;2.63;1.00;;;19.80;92.70;;;;;;5014644;28;20041;-77
2023/09/21 01:03:11;;;;;;;2.35;0.57;;;19.80;92.70;;;;;;4997056;28;20026;-77
2023/09/21 01:05:39;;;;;;;2.97;1.10;;;19.90;92.80;;;;;;5014562;28;20051;-78
2023/09/21 01:08:11;;;;;;;3.10;0.90;;;19.80;92.70;;;;;;5015205;28;20030;-78
2023/09/21 01:10:42;;;;;;;1.77;0.77;;;19.80;92.50;;;;;;5014273;28;20049;-78
2023/09/21 01:13:08;;;;;;;2.33;0.70;;;19.80;92.40;;;;;;5014616;28;20257;-78
2023/09/21 01:15:37;;;;;;;3.47;0.80;;;19.70;92.50;;;;;;4980753;28;20177;-77
2023/09/21 01:18:04;;;;;;;3.30;1.02;;;19.70;92.50;;;;;;5013286;28;20034;-77
2023/09/21 01:20:32;;;;;;;2.30;0.90;;;19.70;92.50;;;;;;5014161;28;20033;-77
2023/09/21 01:23:03;;;;;;;1.85;0.73;;;19.80;92.50;;;;;;4997003;28;20030;-77
2023/09/21 01:25:29;;;;;;;1.20;0.57;;;19.80;92.60;;;;;;5014461;28;20030;-77
2023/09/21 01:27:55;;;;;;;1.50;0.60;;;19.80;92.60;;;;;;5015145;28;20042;-78
2023/09/21 01:30:21;;;;;;;5.32;0.98;;;19.80;92.90;;;;;;4996141;28;20364;-77
2023/09/21 01:32:48;;;;;;;3.65;0.90;;;19.80;92.70;;;;;;5013238;28;20105;-77
2023/09/21 01:35:16;;;;;;;3.13;1.00;;;19.80;92.50;;;;;;5013817;28;20040;-77
2023/09/21 01:37:41;;;;;;;3.17;0.80;;;19.80;92.50;;;;;;5013497;28;20155;-77
2023/09/21 01:40:16;;;;;;;2.90;0.90;;;19.80;92.40;;;;;;5013448;28;20097;-78
2023/09/21 01:42:48;;;;;;;2.63;0.50;;;19.80;92.40;;;;;;5013404;28;20038;-78
2023/09/21 01:45:15;;;;;;;3.08;0.70;;;19.80;92.20;;;;;;4996458;28;20573;-78
2023/09/21 01:47:42;;;;;;;3.50;1.15;;;19.80;92.20;;;;;;5014234;28;20030;-78
2023/09/21 01:50:11;;;;;;;1.50;0.65;;;19.70;92.30;;;;;;5014833;28;20022;-78
2023/09/21 01:52:38;;;;;;;2.53;0.90;;;19.70;92.40;;;;;;5016903;28;20033;-78
2023/09/21 01:55:10;;;;;;;2.63;0.65;;;19.70;92.50;;;;;;4997773;28;20048;-78
2023/09/21 01:57:37;;;;;;;2.03;0.87;;;19.70;92.60;;;;;;4996268;28;20113;-78
2023/09/21 02:00:21;;;;;;;1.75;0.75;;;19.70;92.50;;;;;;4995969;28;20832;-78
2023/09/21 02:02:48;;;;;;;1.90;0.77;;;19.70;92.60;;;;;;5013892;28;20061;-78
2023/09/21 02:05:15;;;;;;;2.15;0.73;;;19.70;92.50;;;;;;5013196;28;20065;-79
2023/09/21 02:07:42;;;;;;;3.63;0.70;;;19.70;92.50;;;;;;4995808;28;20041;-78
2023/09/21 02:10:09;;;;;;;1.15;0.50;;;19.70;92.50;;;;;;5012533;28;20471;-78
2023/09/21 02:12:39;;;;;;;2.28;0.60;;;19.80;92.50;;;;;;5013301;28;20095;-77
2023/09/21 02:15:17;;;;;;;2.35;0.75;;;19.80;92.50;;;;;;5013054;28;20034;-78
2023/09/21 02:17:43;;;;;;;2.22;0.70;;;19.80;92.40;;;;;;5013264;28;20164;-77
2023/09/21 02:20:14;;;;;;;3.83;1.10;;;19.80;92.50;;;;;;5012691;28;20026;-79
2023/09/21 02:22:51;;;;;;;2.78;0.77;;;19.70;92.50;;;;;;5012965;28;20022;-78
2023/09/21 02:25:18;;;;;;;2.17;0.70;;;19.70;92.40;;;;;;5012902;28;20165;-78
2023/09/21 02:27:48;;;;;;;3.20;0.88;;;19.70;92.30;;;;;;5012789;28;20026;-78
2023/09/21 02:30:17;;;;;;;2.78;0.90;;;19.70;92.40;;;;;;5015864;28;20026;-78
2023/09/21 02:32:44;;;;;;;2.28;0.80;;;19.80;92.50;;;;;;5016359;28;20182;-79
2023/09/21 02:35:16;;;;;;;1.83;0.80;;;19.80;92.50;;;;;;5016926;28;20026;-78
2023/09/21 02:37:44;;;;;;;2.42;0.73;;;19.70;92.30;;;;;;5016839;28;20479;-78
2023/09/21 02:40:14;;;;;;;2.42;1.02;;;19.80;92.30;;;;;;4999219;28;20042;-78
2023/09/21 02:42:41;;;;;;;3.63;0.73;;;19.80;92.40;;;;;;5016629;28;20026;-78
2023/09/21 02:45:10;;;;;;;2.10;0.60;;;19.80;92.30;;;;;;5016662;28;20066;-79
2023/09/21 02:47:36;;;;;;;1.60;0.70;;;19.80;92.30;;;;;;5017156;28;20064;-79
2023/09/21 02:50:14;;;;;;;1.33;0.60;;;19.70;92.20;;;;;;5016513;28;20038;-79
2023/09/21 02:52:45;;;;;;;1.40;0.70;;;19.80;92.20;;;;;;5016584;28;20033;-79
2023/09/21 02:55:11;;;;;;;2.30;1.00;;;19.80;92.00;;;;;;5016567;28;20030;-79
2023/09/21 02:57:37;;;;;;;3.78;0.63;;;19.80;91.90;;;;;;5016569;28;20148;-79
2023/09/21 03:00:12;;;;;;;1.15;0.75;;;19.90;92.10;;;;;;5016425;28;20474;-79
2023/09/21 03:02:37;;;;;;;2.00;0.80;;;19.90;92.00;;;;;;5016601;28;20030;-79
2023/09/21 03:05:03;;;;;;;3.00;0.80;;;19.90;92.50;;;;;;5016466;28;20120;-79
2023/09/21 03:07:29;;;;;;;1.98;0.80;;;19.90;92.10;;;;;;5016229;28;20057;-79
2023/09/21 03:09:55;;;;;;;3.63;0.70;;;19.90;92.10;;;;;;5016360;28;20054;-78
2023/09/21 03:12:22;;;;;;;4.15;1.00;;;20.00;92.10;;;;;;4998895;28;20320;-78
2023/09/21 03:14:48;;;;;;;2.58;0.50;;;20.00;92.10;;;;;;4982588;28;20034;-78
2023/09/21 03:17:14;;;;;;;1.42;0.50;;;20.00;91.90;;;;;;4998523;28;20355;-78
2023/09/21 03:19:40;;;;;;;1.80;0.70;;;20.00;91.90;;;;;;5016088;28;20077;-78
2023/09/21 03:22:06;;;;;;;1.38;0.63;;;20.10;92.00;;;;;;5016065;28;20049;-78
2023/09/21 03:24:33;;;;;;;3.95;0.77;;;20.10;91.90;;;;;;4998271;28;20449;-78
2023/09/21 03:26:58;;;;;;;2.30;0.80;;;20.10;91.80;;;;;;5015979;28;20053;-78
2023/09/21 03:29:24;;;;;;;2.58;0.68;;;20.10;91.90;;;;;;5015920;28;20464;-78
2023/09/21 03:31:50;;;;;;;1.55;0.40;;;20.00;92.00;;;;;;5015511;28;20037;-78
2023/09/21 03:34:15;;;;;;;1.83;0.70;;;20.10;92.10;;;;;;5016099;28;20412;-77
2023/09/21 03:36:42;;;;;;;1.58;0.60;;;20.10;91.90;;;;;;5015545;28;20034;-77
2023/09/21 03:39:10;;;;;;;3.15;0.88;;;20.10;91.80;;;;;;4998206;28;20049;-78
2023/09/21 03:41:36;;;;;;;2.13;0.43;;;20.00;91.80;;;;;;5014990;28;20109;-77
2023/09/21 03:44:05;;;;;;;2.17;0.80;;;20.00;91.80;;;;;;5016269;28;20038;-78
2023/09/21 03:46:31;;;;;;;3.78;0.75;;;20.00;91.80;;;;;;4998485;28;20037;-78
2023/09/21 03:48:56;;;;;;;3.85;0.63;;;20.00;91.80;;;;;;4998273;28;20034;-78
2023/09/21 03:51:22;;;;;;;3.35;0.90;;;20.00;91.60;;;;;;5016021;28;20165;-79
2023/09/21 03:53:47;;;;;;;3.35;0.60;;;20.00;91.80;;;;;;5015953;28;20107;-79
2023/09/21 03:56:13;;;;;;;3.28;0.80;;;20.00;91.80;;;;;;5015317;28;20547;-79
2023/09/21 03:58:38;;;;;;;2.13;0.73;;;20.00;91.80;;;;;;5015244;28;20030;-79
2023/09/21 04:01:07;;;;;;;1.73;0.73;;;20.00;91.70;;;;;;5015503;28;20030;-78
2023/09/21 04:03:32;;;;;;;3.78;0.68;;;20.00;91.70;;;;;;4997835;28;20617;-79
2023/09/21 04:06:03;;;;;;;2.70;0.65;;;20.00;91.70;;;;;;4998403;28;20093;-79
2023/09/21 04:08:28;;;;;;;1.75;0.50;;;20.00;91.70;;;;;;4998329;28;20029;-79
2023/09/21 04:11:00;;;;;;;1.73;0.60;;;20.00;91.80;;;;;;5017176;28;20034;-78
2023/09/21 04:13:26;;;;;;;2.20;0.93;;;20.00;91.90;;;;;;5015071;28;20057;-79
2023/09/21 04:15:51;;;;;;;2.05;0.40;;;20.00;91.90;;;;;;4998229;28;20104;-79
2023/09/21 04:18:17;;;;;;;1.13;0.55;;;20.00;92.00;;;;;;4997600;28;20026;-78
2023/09/21 04:20:44;;;;;;;2.85;0.85;;;20.00;92.10;;;;;;5015135;28;20056;-78
2023/09/21 04:23:10;;;;;;;2.30;0.80;;;20.00;91.90;;;;;;5014939;28;20038;-77
2023/09/21 04:25:38;;;;;;;1.75;1.02;;;19.90;92.00;;;;;;5015030;28;20050;-78
2023/09/21 04:28:05;;;;;;;3.67;0.70;;;19.90;92.10;;;;;;4998153;28;20030;-79
2023/09/21 04:30:34;;;;;;;2.50;0.90;;;19.80;92.20;;;;;;5014980;28;20038;-79
2023/09/21 04:33:00;;;;;;;2.00;0.90;;;19.90;92.30;;;;;;5014684;28;20038;-79
2023/09/21 04:35:26;;;;;;;1.35;0.68;;;19.90;92.30;;;;;;5014755;28;20030;-79
2023/09/21 04:37:53;;;;;;;2.40;0.80;;;19.90;92.40;;;;;;5014687;28;20060;-79
2023/09/21 04:40:20;;;;;;;2.50;0.60;;;19.90;92.30;;;;;;5014694;28;20029;-79
2023/09/21 04:42:47;;;;;;;1.67;1.02;;;20.00;92.30;;;;;;5014329;28;20483;-79
2023/09/21 04:45:15;;;;;;;2.55;1.00;;;20.00;92.40;;;;;;4997008;28;20038;-79
2023/09/21 04:47:45;;;;;;;2.92;0.70;;;20.00;92.40;;;;;;5014173;28;20475;-78
2023/09/21 04:50:13;;;;;;;1.80;0.70;;;20.00;92.30;;;;;;5014261;28;20450;-78
2023/09/21 04:52:39;;;;;;;1.92;0.75;;;20.00;92.30;;;;;;5014562;28;20100;-77
2023/09/21 04:55:08;;;;;;;1.95;1.00;;;19.90;92.30;;;;;;5013978;28;20037;-77
2023/09/21 04:57:34;;;;;;;3.15;0.80;;;20.00;92.30;;;;;;5014332;28;20034;-79
2023/09/21 05:00:10;;;;;;;4.20;0.93;;;19.90;92.50;;;;;;5013889;28;20486;-79
2023/09/21 05:02:36;;;;;;;3.25;0.77;;;19.90;92.50;;;;;;5014748;28;20370;-79
2023/09/21 05:05:02;;;;;;;1.65;0.80;;;20.00;92.50;;;;;;5014133;28;20026;-79
2023/09/21 05:07:28;;;;;;;3.42;1.00;;;20.00;92.40;;;;;;5014307;28;20038;-80
2023/09/21 05:09:54;;;;;;;3.00;0.88;;;20.00;92.50;;;;;;5014062;28;20057;-81
2023/09/21 05:12:20;;;;;;;1.90;1.00;;;20.00;92.30;;;;;;5014161;28;20042;-81
2023/09/21 05:14:46;;;;;;;3.63;1.13;;;20.00;92.40;;;;;;5014219;28;20056;-81
2023/09/21 05:17:12;;;;;;;1.48;0.70;;;19.90;92.50;;;;;;4996722;28;20501;-82
2023/09/21 05:19:38;;;;;;;1.73;0.80;;;20.00;92.50;;;;;;5014271;28;20038;-82
2023/09/21 05:22:04;;;;;;;3.30;0.68;;;19.90;92.50;;;;;;5014652;28;20022;-81
2023/09/21 05:24:30;;;;;;;4.20;0.90;;;19.90;92.60;;;;;;5013575;28;20034;-82
2023/09/21 05:26:56;;;;;;;2.83;0.75;;;19.90;92.80;;;;;;5012597;28;20057;-82
2023/09/21 05:29:23;;;;;;;2.55;0.63;;;19.90;92.90;;;;;;5013799;28;20036;-79
2023/09/21 05:31:51;;;;;;;2.83;0.90;;;20.00;93.10;;;;;;5013762;28;20022;-82
2023/09/21 05:34:17;;;;;;;2.85;0.82;;;20.00;92.90;;;;;;5013682;28;20156;-82
2023/09/21 05:36:53;;;;;;;2.40;0.70;;;20.00;93.00;;;;;;5014463;28;20117;-80
2023/09/21 05:39:19;;;;;;;4.38;0.77;;;20.00;93.20;;;;;;5013490;28;20033;-80
2023/09/21 05:41:54;;;;;;;4.22;0.88;;;20.00;93.00;;;;;;5013546;28;20041;-82
2023/09/21 05:44:25;;;;;;;2.92;0.80;;;20.00;93.00;;;;;;5014067;28;20026;-80
2023/09/21 05:46:51;;;;;;;2.00;0.88;;;20.10;92.90;;;;;;4996196;28;20038;-81
2023/09/21 05:49:22;;;;;;;3.58;1.08;;;20.10;92.80;;;;;;5013307;28;20030;-84
2023/09/21 05:51:52;;;;;;;4.68;1.30;;;20.00;92.90;;;;;;5013694;28;20026;-85
2023/09/21 05:54:23;;;;;;;2.85;0.70;;;20.00;93.10;;;;;;5014000;28;20018;-82
2023/09/21 05:56:50;;;;;;;3.03;0.85;;;20.00;93.20;;;;;;5014315;28;20038;-84
2023/09/21 05:59:17;;;;;;;2.63;0.60;;;19.90;93.30;;;;;;5012918;28;20037;-83
2023/09/21 06:01:43;;;;;;;2.35;1.08;;;20.00;93.40;;;;;;5012396;28;20030;-84
2023/09/21 06:04:12;;;;;;;3.13;0.60;;;20.00;93.40;;;;;;4995688;28;20381;-80
2023/09/21 06:06:40;;;;;;;2.00;0.60;;;20.10;93.50;;;;;;5013052;28;20060;-76
2023/09/21 06:09:08;;;;;;;6.10;0.80;;;20.10;93.60;;;;;;5013015;28;20490;-79
2023/09/21 06:11:33;;;;;;;1.65;0.70;;;20.10;93.50;;;;;;4995691;28;20382;-79
2023/09/21 06:13:59;;;;;;;3.72;0.90;;;20.10;93.50;;;;;;5013154;28;20033;-79
2023/09/21 06:16:25;;;;;;;1.55;0.70;;;20.20;93.60;;;;;;5012993;28;20108;-79
2023/09/21 06:18:50;;;;;;;3.58;0.93;;;20.20;93.50;;;;;;4995358;28;20499;-80
2023/09/21 06:21:16;;;;;;;4.05;0.68;;;20.20;93.60;;;;;;5013152;28;20113;-78
2023/09/21 06:23:44;;;;;;;3.13;0.80;;;20.30;93.40;;;;;;4996589;28;20045;-81
2023/09/21 06:26:14;;;;;;;3.20;0.82;;;20.30;93.30;;;;;;4996700;28;20042;-81
2023/09/21 06:28:43;;;;;;;2.22;0.88;;;20.20;92.90;;;;;;5014644;28;20041;-78
2023/09/21 06:31:13;;;;;;;4.40;0.73;;;20.10;93.10;;;;;;5013131;28;20060;-78
2023/09/21 06:33:39;;;;;;;1.55;0.60;;;20.20;93.50;;;;;;5013185;28;20370;-79
2023/09/21 06:36:08;;;;;;;3.78;0.95;;;20.20;93.40;;;;;;5013064;28;20030;-75
2023/09/21 06:38:33;;;;;;;2.72;0.60;;;20.20;93.40;;;;;;4995017;28;20050;-78
2023/09/21 06:41:00;;;;;;;2.03;0.80;;;20.20;93.60;;;;;;4995229;28;20449;-80
2023/09/21 06:43:29;;;;;;;3.63;0.65;;;20.20;93.90;;;;;;5013140;28;20037;-77
2023/09/21 06:45:55;;;;;;;3.75;0.93;;;20.20;94.00;;;;;;5012796;28;20129;-78
2023/09/21 06:48:20;;;;;;;3.22;0.60;;;20.20;94.20;;;;;;5014038;28;20476;-76
2023/09/21 06:50:47;;;;;;;4.90;0.80;;;20.20;94.30;;;;;;5018117;28;20052;-79
2023/09/21 06:53:13;;;;;;;3.42;0.90;;;20.30;94.40;;;;;;5014469;28;20033;-76
2023/09/21 06:55:38;;;;;;;2.90;0.93;;;20.30;94.50;;;;;;4996462;28;20037;-80
2023/09/21 06:58:06;;;;;;;2.88;0.60;;;20.40;94.60;;;;;;5015211;28;20108;-77
2023/09/21 07:00:31;;;;;;;6.25;1.02;;;20.40;94.70;;;;;;5014544;28;20034;-78
2023/09/21 07:02:57;;;;;;;4.50;0.70;;;20.40;94.90;;;;;;5014333;28;20034;-76
2023/09/21 07:05:23;;;;;;;4.90;1.08;;;20.40;94.90;;;;;;5012334;28;20045;-75
2023/09/21 07:07:48;;;;;;;3.15;1.10;;;20.50;94.90;;;;;;5013046;28;20026;-75
2023/09/21 07:10:16;;;;;;;3.40;1.00;;;20.50;95.00;;;;;;5012629;28;20486;-75
2023/09/21 07:12:41;;;;;;;7.25;0.77;;;20.50;95.10;;;;;;4979204;28;20048;-75
2023/09/21 07:15:07;;;;;;;2.53;0.70;;;20.50;95.20;;;;;;4995469;28;20033;-75
2023/09/21 07:17:34;;;;;;;2.28;0.75;;;20.40;95.40;;;;;;4982202;28;20037;-75
2023/09/21 07:20:01;;;;;;;5.57;0.80;;;20.50;95.50;;;;;;5015766;28;20038;-76
2023/09/21 07:22:27;;;;;;;3.75;1.20;;;20.50;95.50;;;;;;5016238;28;20053;-76
2023/09/21 07:24:53;;;;;;;6.20;0.90;;;20.50;95.70;;;;;;5015363;28;20037;-75
2023/09/21 07:27:18;;;;;;;4.13;0.80;;;20.50;95.80;;;;;;5015350;28;20037;-75
2023/09/21 07:29:44;;;;;;;3.17;1.00;;;20.50;95.80;;;;;;4998291;28;20038;-76
2023/09/21 07:32:10;;;;;;;2.35;0.70;;;20.50;96.00;;;;;;5015459;28;20110;-76
2023/09/21 07:34:37;;;;;;;4.00;0.80;;;20.50;96.00;;;;;;5015443;28;20081;-75
2023/09/21 07:37:03;;;;;;;2.65;0.80;;;20.50;96.00;;;;;;5015434;28;20067;-76
2023/09/21 07:39:29;;;;;;;3.20;1.08;;;20.50;96.10;;;;;;5015473;28;20323;-79
2023/09/21 07:41:55;;;;;;;5.07;1.38;;;20.40;96.10;;;;;;5016099;28;20037;-77
2023/09/21 07:44:22;;;;;;;2.65;1.17;;;20.40;96.30;;;;;;5015064;28;20034;-76
2023/09/21 07:46:50;;;;;;;3.95;0.93;;;20.40;96.30;;;;;;5015256;28;20030;-76
2023/09/21 07:49:17;;;;;;;3.40;1.10;;;20.40;96.30;;;;;;4997725;28;20386;-77
2023/09/21 07:51:43;;;;;;;3.45;1.38;;;20.40;96.40;;;;;;5015285;28;20068;-77
2023/09/21 07:54:09;;;;;;;3.78;1.23;;;20.40;96.40;;;;;;4997375;28;20054;-76
2023/09/21 07:56:36;;;;;;;5.78;1.38;;;20.30;96.50;;;;;;5015017;28;20044;-76
2023/09/21 07:59:02;;;;;;;5.55;1.27;;;20.30;96.90;;;;;;5015214;28;20085;-76
2023/09/21 08:01:28;;;;;;;5.80;1.40;;;20.20;96.90;;;;;;4997310;28;20068;-76
2023/09/21 08:03:54;;;;;;;4.32;0.93;;;20.10;97.20;;;;;;5014785;28;20042;-76
2023/09/21 08:06:22;;;;;;;3.70;1.20;;;20.10;97.10;;;;;;5014480;28;20482;-76
2023/09/21 08:08:50;;;;;;;3.85;1.40;;;20.10;97.20;;;;;;5014749;28;20037;-77
2023/09/21 08:11:16;;;;;;;3.38;0.98;;;20.10;97.40;;;;;;4997833;28;20355;-76
2023/09/21 08:13:42;;;;;;;3.50;1.30;;;20.10;97.40;;;;;;4997186;28;20133;-76
2023/09/21 08:16:08;;;;;;;3.20;1.40;;;20.10;97.60;;;;;;4997120;28;20042;-76
2023/09/21 08:18:36;;;;;;;4.32;1.15;;;20.10;97.70;;;;;;5014493;28;20117;-76
2023/09/21 08:21:03;;;;;;;4.75;1.27;;;20.10;98.00;;;;;;5013951;28;20091;-76
2023/09/21 08:23:29;;;;;;;2.90;1.10;;;20.10;97.80;;;;;;5014380;28;20030;-76
2023/09/21 08:25:55;;;;;;;4.35;1.60;;;20.10;98.00;;;;;;4996581;28;20038;-77
2023/09/21 08:28:21;;;;;;;5.38;1.58;;;20.10;97.90;;;;;;5013828;28;20053;-76
2023/09/21 08:30:47;;;;;;;2.70;1.27;;;20.10;97.90;;;;;;5014241;28;20057;-77
2023/09/21 08:33:13;;;;;;;3.33;1.20;;;20.10;98.00;;;;;;4997009;28;20034;-76
2023/09/21 08:35:40;;;;;;;6.40;1.50;;;20.10;98.00;;;;;;5014329;28;20364;-76
2023/09/21 08:38:06;;;;;;;2.50;1.13;;;20.20;98.10;;;;;;5014549;28;20030;-77
2023/09/21 08:40:34;;;;;;;4.18;1.58;;;20.20;98.20;;;;;;5014603;28;20029;-77
2023/09/21 08:43:00;;;;;;;3.50;1.35;;;20.20;98.30;;;;;;5015007;28;20025;-77
2023/09/21 08:45:26;;;;;;;5.60;1.42;;;20.20;98.30;;;;;;4997250;28;20033;-77
2023/09/21 08:47:52;;;;;;;4.00;1.35;;;20.20;98.40;;;;;;5015082;28;20045;-77
2023/09/21 08:50:18;;;;;;;4.28;1.40;;;20.20;98.40;;;;;;5014739;28;20030;-78
2023/09/21 08:52:44;;;;;;;3.50;1.25;;;20.30;98.40;;;;;;4996826;28;20037;-78
2023/09/21 08:55:12;;;;;;;4.57;1.58;;;20.20;98.50;;;;;;5014372;28;20380;-77
2023/09/21 08:57:38;;;;;;;3.90;1.35;;;20.20;98.90;;;;;;5014408;28;20033;-78
2023/09/21 09:00:08;;;;;;;2.95;1.33;;;20.20;98.90;;;;;;5013925;28;20041;-79
2023/09/21 09:02:35;;;;;;;4.10;1.42;;;20.20;98.90;;;;;;5014581;28;20018;-77
2023/09/21 09:05:08;;;;;;;3.95;1.55;;;20.10;99.00;;;;;;5014792;28;20474;-80
2023/09/21 09:07:41;;;;;;;2.17;1.20;;;20.10;99.20;;;;;;5017078;28;20025;-77
2023/09/21 09:10:12;;;;;;;4.00;1.15;;;20.10;99.20;;;;;;5014295;28;20160;-79
2023/09/21 09:12:39;;;;;;;4.85;1.58;;;20.00;99.20;;;;;;5013713;28;20037;-80
2023/09/21 09:15:08;;;;;;;3.05;1.35;;;20.10;99.40;;;;;;5014812;28;20030;-77
2023/09/21 09:17:35;;;;;;;3.70;1.30;;;20.10;99.20;;;;;;5014355;28;20053;-77
2023/09/21 09:20:03;;;;;;;3.75;1.45;;;20.10;99.30;;;;;;5013944;28;20089;-76
2023/09/21 09:22:31;;;;;;;6.18;2.33;;;20.00;99.40;;;;;;5014456;28;20030;-77
2023/09/21 09:25:04;;;;;;;6.20;2.03;;;20.10;99.50;;;;;;5013729;28;20033;-76
2023/09/21 09:27:32;;;;;;;5.65;2.15;;;20.10;99.50;;;;;;5018316;28;20036;-81
2023/09/21 09:29:57;;;;;;;4.93;2.58;;;20.10;99.50;;;;;;5015895;28;20061;-81
2023/09/21 09:32:24;;;;;;;5.15;2.00;;;20.00;99.60;;;;;;5003637;28;20038;-82
2023/09/21 09:34:49;;;;;;;3.55;2.05;;;19.90;99.70;;;;;;5024859;28;20091;-83
2023/09/21 09:37:16;;;;;;;5.72;2.92;;;19.80;99.70;;;;;;5023270;28;20106;-80
2023/09/21 09:39:43;;;;;;;4.25;1.60;;;19.80;99.90;;;;;;5024356;28;20022;-78
2023/09/21 09:42:11;;;;;;;3.60;1.60;;;19.60;99.90;;;;;;4996101;28;20041;-79
2023/09/21 09:44:46;;;;;;;2.80;1.55;;;19.50;99.90;;;;;;5018594;28;20046;-80
2023/09/21 09:47:16;;;;;;;3.65;1.42;;;19.50;99.90;;;;;;5015520;28;20149;-79
2023/09/21 09:49:46;;;;;;;4.07;1.73;;;19.50;99.90;;;;;;5013339;28;20052;-77
2023/09/21 09:52:14;;;;;;;3.08;1.33;;;19.50;99.90;;;;;;5014052;28;20029;-76
2023/09/21 09:54:40;;;;;;;1.90;1.00;;;19.50;99.90;;;;;;5014091;28;20026;-79
2023/09/21 09:57:11;;;;;;;5.03;1.25;;;19.60;99.90;;;;;;5022095;28;20034;-80
2023/09/21 09:59:37;;;;;;;2.30;1.10;;;19.60;99.90;;;;;;5000974;28;20103;-80
2023/09/21 10:02:07;;;;;;;2.08;0.90;;;19.70;99.90;;;;;;5001008;28;20030;-79
2023/09/21 10:04:35;;;;;;;2.50;0.88;;;19.60;99.90;;;;;;5014286;28;20049;-78
2023/09/21 10:07:04;;;;;;;4.28;1.20;;;19.70;99.90;;;;;;5013493;28;20030;-79
2023/09/21 10:09:31;;;;;;;3.25;1.13;;;19.70;99.90;;;;;;5013791;28;20486;-80
2023/09/21 10:11:58;;;;;;;3.40;1.15;;;19.70;99.90;;;;;;5022880;28;20045;-81
2023/09/21 10:14:24;;;;;;;2.17;0.88;;;19.70;99.90;;;;;;5025503;28;20121;-79
2023/09/21 10:16:55;;;;;;;1.85;0.65;;;19.70;99.90;;;;;;5021675;28;20025;-80
2023/09/21 10:19:25;;;;;;;3.67;0.90;;;19.80;99.90;;;;;;5014999;28;20025;-77
2023/09/21 10:21:56;;;;;;;3.83;1.00;;;19.80;99.90;;;;;;5013707;28;20113;-79
2023/09/21 10:24:26;;;;;;;2.67;0.68;;;19.90;99.90;;;;;;5013350;28;20097;-78
2023/09/21 10:26:53;;;;;;;2.58;1.08;;;19.90;99.90;;;;;;5013392;28;20409;-80
2023/09/21 10:29:32;;;;;;;2.20;1.10;;;20.00;99.90;;;;;;5012582;28;20038;-79
2023/09/21 10:32:01;;;;;;;3.03;0.95;;;20.00;99.80;;;;;;5012647;28;20041;-77
2023/09/21 10:34:26;;;;;;;3.03;1.00;;;20.00;99.90;;;;;;5012490;28;20034;-77
2023/09/21 10:37:10;;;;;;;2.88;0.57;;;20.00;99.70;;;;;;5012478;28;20037;-76
2023/09/21 10:39:39;;;;;;;3.97;0.63;;;20.00;99.20;;;;;;5012719;28;20026;-76
2023/09/21 10:42:05;;;;;;;1.63;0.63;;;19.90;99.10;;;;;;4994604;28;20034;-75
2023/09/21 10:44:52;;;;;;;2.65;0.70;;;19.90;99.40;;;;;;5012169;28;20047;-76
2023/09/21 10:47:36;;;;;;;2.35;0.75;;;19.90;99.60;;;;;;5012812;28;20086;-76
2023/09/21 10:50:03;;;;;;;1.65;0.50;;;20.00;99.60;;;;;;5013937;28;20435;-77
2023/09/21 10:52:29;;;;;;;1.52;0.40;;;20.00;99.40;;;;;;5016894;28;20037;-76
2023/09/21 10:54:58;;;;;;;2.05;0.55;;;19.80;99.30;;;;;;4999149;28;20034;-76
2023/09/21 10:57:28;;;;;;;0.77;0.40;;;19.60;99.60;;;;;;5016208;28;20058;-76
2023/09/21 10:59:55;;;;;;;2.25;0.40;;;19.60;99.90;;;;;;5019248;28;20037;-76
2023/09/21 11:02:22;;;;;;;2.92;0.50;;;19.60;99.90;;;;;;5000215;28;20026;-79
2023/09/21 11:04:49;;;;;;;1.02;0.57;;;19.60;99.90;;;;;;5016962;28;20122;-74
2023/09/21 11:07:17;;;;;;;0.77;0.30;;;19.70;99.90;;;;;;5016577;28;20065;-79
2023/09/21 11:09:44;;;;;;;2.65;0.57;;;19.70;99.90;;;;;;5016041;28;20050;-80
2023/09/21 11:12:13;;;;;;;1.75;0.60;;;19.80;99.90;;;;;;5015844;28;20065;-78
2023/09/21 11:14:43;;;;;;;2.08;0.85;;;19.90;99.90;;;;;;5016052;28;20026;-80
2023/09/21 11:17:11;;;;;;;1.95;0.93;;;20.00;99.80;;;;;;5016752;28;20443;-83
2023/09/21 11:19:40;;;;;;;2.20;1.30;;;20.10;99.70;;;;;;5015335;28;20041;-83
2023/09/21 11:22:06;;;;;;;1.73;1.10;;;20.20;99.50;;;;;;5014795;28;20045;-85
2023/09/21 11:24:35;;;;;;;2.65;0.82;;;20.30;99.40;;;;;;5015904;28;20142;-82
2023/09/21 11:27:09;;;;;;;4.57;0.70;;;20.30;99.40;;;;;;5016307;28;20347;-82
2023/09/21 11:29:39;;;;;;;1.75;0.77;;;20.40;99.40;;;;;;5015369;28;20037;-80
2023/09/21 11:32:12;;;;;;;2.50;0.60;;;20.50;99.30;;;;;;5016092;28;20120;-82
2023/09/21 11:34:39;;;;;;;1.40;0.95;;;20.50;99.20;;;;;;5015406;28;20201;-77
2023/09/21 11:37:07;;;;;;;2.75;0.90;;;20.60;99.10;;;;;;4997440;28;20133;-79
2023/09/21 11:39:38;;;;;;;2.45;1.23;;;20.60;99.10;;;;;;5015329;28;20040;-80
2023/09/21 11:42:10;;;;;;;2.72;0.85;;;20.70;99.10;;;;;;5015462;28;20108;-80
2023/09/21 11:44:37;;;;;;;4.38;0.68;;;20.50;98.40;;;;;;5015319;28;20034;-75
2023/09/21 11:47:09;;;;;;;0.68;0.30;;;20.20;98.20;;;;;;5015107;28;20034;-76
2023/09/21 11:49:40;;;;;;;1.20;0.50;;;20.00;98.20;;;;;;5015372;28;20022;-76
2023/09/21 11:52:06;;;;;;;0.80;0.40;;;19.90;98.80;;;;;;5015243;28;20113;-78
2023/09/21 11:54:35;;;;;;;2.58;0.40;;;19.70;99.00;;;;;;4996956;28;20029;-78
2023/09/21 11:57:03;;;;;;;1.42;0.60;;;19.70;99.30;;;;;;5014893;28;20033;-78
2023/09/21 11:59:42;;;;;;;1.33;0.50;;;19.70;99.40;;;;;;5014525;28;20427;-75
2023/09/21 12:02:14;;;;;;;1.45;0.50;;;19.80;99.50;;;;;;4996814;28;20387;-77
2023/09/21 12:04:43;;;;;;;1.80;0.40;;;19.80;99.50;;;;;;5014915;28;20485;-79
2023/09/21 12:07:12;;;;;;;1.75;0.57;;;19.70;99.60;;;;;;5014584;28;20041;-79
2023/09/21 12:09:41;;;;;;;2.05;0.60;;;19.80;99.60;;;;;;5015150;28;20081;-77
2023/09/21 12:12:09;;;;;;;1.75;0.50;;;19.80;99.50;;;;;;5015079;28;20129;-80
2023/09/21 12:14:36;;;;;;;0.95;0.30;;;19.80;99.60;;;;;;5015729;28;20033;-77
2023/09/21 12:17:08;;;;;;;1.98;0.60;;;19.80;99.50;;;;;;4997614;28;20030;-79
2023/09/21 12:19:34;;;;;;;;;;;19.70;99.10;;;;;;5015679;28;20033;-76
2023/09/21 12:22:00;;;;;;;1.42;0.50;;;19.60;99.00;;;;;;5015284;28;19910;-78
2023/09/21 12:24:26;;;;;;;1.08;0.45;;;19.30;99.50;;;;;;5015213;28;20030;-77
2023/09/21 12:26:53;;;;;;;2.05;0.47;;;19.20;99.80;;;;;;5014908;28;20034;-77
2023/09/21 12:29:19;;;;;;;2.95;0.80;;;19.20;99.80;;;;;;4997809;28;20037;-78
2023/09/21 12:31:45;;;;;;;1.50;0.50;;;19.20;99.80;;;;;;5015004;28;20026;-78
2023/09/21 12:34:15;;;;;;;2.08;0.30;;;19.20;99.80;;;;;;5015102;28;20097;-78
2023/09/21 12:36:48;;;;;;;3.15;0.57;;;19.00;99.40;;;;;;5015321;28;20026;-77
2023/09/21 12:39:14;;;;;;;1.27;0.50;;;19.00;99.70;;;;;;5015105;28;20030;-77
2023/09/21 12:41:43;;;;;;;1.63;0.50;;;19.00;99.90;;;;;;5013648;28;20030;-78
2023/09/21 12:44:13;;;;;;;1.00;0.50;;;19.10;99.90;;;;;;5014956;28;20034;-78
2023/09/21 12:46:39;;;;;;;1.40;0.40;;;19.10;99.80;;;;;;5015044;28;20034;-78
2023/09/21 12:49:04;;;;;;;1.05;0.30;;;18.90;99.80;;;;;;5014475;28;20379;-79
2023/09/21 12:51:32;;;;;;;1.20;0.30;;;18.90;99.90;;;;;;5015246;28;20033;-77